Time;durP1;ratioP1;P1;durP2;ratioP2;P2;SDS_P1;SDS_P2;PMS_P1;PMS_P2;Temp;Humidity;BMP_temperature;BMP_pressure;BME280_temperature;BME280_humidity;BME280_pressure;Samples;Min_cycle;Max_cycle;Signal;HPM_P1;HPM_P2
2021/04/30 00:02:22;;;;;;;33.97;25.05;;;;;;;;;;5070204;28;20131;-87
2021/04/30 00:04:48;;;;;;;37.75;24.92;;;;;;;;;;5077735;28;20059;-87
2021/04/30 00:07:15;;;;;;;33.45;25.63;;;;;;;;;;5077688;28;20048;-87
2021/04/30 00:09:41;;;;;;;30.95;23.38;;;;;;;;;;5073727;28;20112;-86
2021/04/30 00:12:08;;;;;;;33.92;24.27;;;;;;;;;;5075551;28;20455;-87
2021/04/30 00:14:34;;;;;;;35.75;25.20;;;;;;;;;;5060502;28;20111;-86
2021/04/30 00:17:00;;;;;;;31.60;23.42;;;;;;;;;;5065196;28;20032;-86
2021/04/30 00:19:27;;;;;;;30.00;22.52;;;;;;;;;;5074574;28;20049;-86
2021/04/30 00:21:53;;;;;;;33.67;25.92;;;;;;;;;;5078065;28;20060;-86
2021/04/30 00:24:19;;;;;;;30.90;24.52;;;;;;;;;;5071453;28;20131;-86
2021/04/30 00:26:45;;;;;;;31.33;22.90;;;;;;;;;;5073472;28;20037;-86
2021/04/30 00:29:12;;;;;;;28.58;21.98;;;;;;;;;;5070510;28;20124;-87
2021/04/30 00:31:38;;;;;;;38.15;24.10;;;;;;;;;;5071293;28;20059;-86
2021/04/30 00:34:05;;;;;;;30.52;21.45;;;;;;;;;;5075552;28;20047;-86
2021/04/30 00:36:31;;;;;;;32.15;22.80;;;;;;;;;;5061913;28;20123;-86
2021/04/30 00:38:57;;;;;;;32.10;22.73;;;;;;;;;;5077071;28;20125;-86
2021/04/30 00:41:24;;;;;;;33.20;22.08;;;;;;;;;;5076591;28;20165;-87
2021/04/30 00:43:50;;;;;;;34.78;21.27;;;;;;;;;;5073123;28;20436;-87
2021/04/30 00:46:17;;;;;;;36.33;22.20;;;;;;;;;;5074966;28;20048;-87
2021/04/30 00:48:43;;;;;;;39.05;20.88;;;;;;;;;;5079521;28;20044;-86
2021/04/30 00:51:10;;;;;;;30.88;21.02;;;;;;;;;;5080752;28;20118;-86
2021/04/30 00:53:36;;;;;;;34.65;21.13;;;;;;;;;;5074645;28;20041;-86
2021/04/30 00:56:02;;;;;;;31.63;20.48;;;;;;;;;;5070658;28;20416;-87
2021/04/30 00:58:28;;;;;;;37.88;23.48;;;;;;;;;;5057994;28;20429;-86
2021/04/30 01:00:55;;;;;;;38.10;21.70;;;;;;;;;;5069899;28;20109;-86
2021/04/30 01:03:21;;;;;;;35.15;21.83;;;;;;;;;;5072852;28;20313;-87
2021/04/30 01:05:47;;;;;;;33.63;21.20;;;;;;;;;;5076348;28;20064;-87
2021/04/30 01:08:13;;;;;;;35.38;20.95;;;;;;;;;;5082505;28;20044;-86
2021/04/30 01:10:40;;;;;;;41.58;20.33;;;;;;;;;;5075438;28;20045;-86
2021/04/30 01:13:06;;;;;;;31.55;21.42;;;;;;;;;;5072602;28;20067;-86
2021/04/30 01:15:32;;;;;;;41.03;25.00;;;;;;;;;;5070155;28;20101;-86
2021/04/30 01:18:00;;;;;;;38.50;22.02;;;;;;;;;;5072183;28;20040;-86
2021/04/30 01:20:27;;;;;;;39.85;20.30;;;;;;;;;;5079276;28;20134;-87
2021/04/30 01:22:54;;;;;;;30.88;20.60;;;;;;;;;;5070616;28;20491;-87
2021/04/30 01:25:22;;;;;;;35.53;20.30;;;;;;;;;;5070073;28;20087;-86
2021/04/30 01:27:48;;;;;;;34.35;21.40;;;;;;;;;;5076442;28;20051;-86
2021/04/30 01:30:16;;;;;;;33.70;20.60;;;;;;;;;;5076031;28;20040;-87
2021/04/30 01:32:43;;;;;;;33.03;19.52;;;;;;;;;;5069922;28;20071;-86
2021/04/30 01:35:11;;;;;;;39.50;21.25;;;;;;;;;;5068280;28;20127;-86
2021/04/30 01:37:37;;;;;;;40.58;21.30;;;;;;;;;;5069824;28;20041;-86
2021/04/30 01:40:10;;;;;;;43.20;20.83;;;;;;;;;;5071566;28;20061;-86
2021/04/30 01:42:36;;;;;;;35.80;19.77;;;;;;;;;;5072826;28;20396;-86
2021/04/30 01:45:03;;;;;;;30.35;19.33;;;;;;;;;;5072616;28;20036;-86
2021/04/30 01:47:29;;;;;;;38.70;20.85;;;;;;;;;;5069499;28;20052;-87
2021/04/30 01:49:55;;;;;;;45.08;22.00;;;;;;;;;;5072325;28;20036;-86
2021/04/30 01:52:22;;;;;;;39.33;21.05;;;;;;;;;;5076450;28;20099;-86
2021/04/30 01:54:49;;;;;;;34.17;19.95;;;;;;;;;;5074651;28;20428;-86
2021/04/30 01:57:16;;;;;;;35.38;18.95;;;;;;;;;;5072675;28;20398;-87
2021/04/30 01:59:42;;;;;;;42.53;20.02;;;;;;;;;;5080535;28;20051;-87
2021/04/30 02:02:09;;;;;;;40.90;19.70;;;;;;;;;;5070728;28;20040;-87
2021/04/30 02:04:35;;;;;;;41.25;17.50;;;;;;;;;;5070656;28;20041;-86
2021/04/30 02:07:01;;;;;;;38.40;16.27;;;;;;;;;;5066785;28;20400;-87
2021/04/30 02:09:27;;;;;;;40.78;18.45;;;;;;;;;;5066340;28;20115;-86
2021/04/30 02:11:54;;;;;;;35.15;16.50;;;;;;;;;;5069445;28;20109;-86
2021/04/30 02:14:20;;;;;;;34.58;15.35;;;;;;;;;;5063613;28;20045;-86
2021/04/30 02:16:46;;;;;;;37.53;16.60;;;;;;;;;;5073162;28;20044;-86
2021/04/30 02:19:12;;;;;;;39.38;15.95;;;;;;;;;;5063029;28;20063;-86
2021/04/30 02:21:38;;;;;;;39.95;14.52;;;;;;;;;;5064795;28;20396;-87
2021/04/30 02:24:05;;;;;;;39.20;17.38;;;;;;;;;;5056510;28;20049;-87
2021/04/30 02:26:31;;;;;;;44.90;16.42;;;;;;;;;;5069922;28;20074;-87
2021/04/30 02:28:57;;;;;;;45.13;16.58;;;;;;;;;;5072702;28;20038;-87
2021/04/30 02:31:23;;;;;;;51.83;17.08;;;;;;;;;;5071344;28;20053;-87
2021/04/30 02:33:50;;;;;;;47.53;14.90;;;;;;;;;;5066170;28;20037;-86
2021/04/30 02:36:16;;;;;;;39.70;16.00;;;;;;;;;;5071311;28;20146;-86
2021/04/30 02:38:43;;;;;;;38.80;15.88;;;;;;;;;;5062289;28;20140;-86
2021/04/30 02:41:09;;;;;;;34.38;14.90;;;;;;;;;;5057482;28;20046;-86
2021/04/30 02:43:35;;;;;;;34.15;14.00;;;;;;;;;;5059005;28;20048;-86
2021/04/30 02:46:02;;;;;;;42.58;15.70;;;;;;;;;;5061817;28;20044;-86
2021/04/30 02:48:31;;;;;;;44.60;16.95;;;;;;;;;;5074942;28;20041;-86
2021/04/30 02:50:59;;;;;;;46.90;17.00;;;;;;;;;;5070996;28;20052;-86
2021/04/30 02:53:25;;;;;;;53.95;16.65;;;;;;;;;;5075378;28;20320;-86
2021/04/30 02:55:52;;;;;;;49.17;17.08;;;;;;;;;;5073391;28;20044;-86
2021/04/30 02:58:18;;;;;;;43.30;16.45;;;;;;;;;;5056821;28;20064;-86
2021/04/30 03:00:44;;;;;;;45.53;15.95;;;;;;;;;;5059768;28;20399;-86
2021/04/30 03:03:11;;;;;;;52.53;17.63;;;;;;;;;;5072191;28;20171;-86
2021/04/30 03:05:37;;;;;;;52.75;17.52;;;;;;;;;;5076671;28;20063;-86
2021/04/30 03:08:04;;;;;;;53.78;16.70;;;;;;;;;;5057732;28;20049;-86
2021/04/30 03:10:30;;;;;;;43.83;18.00;;;;;;;;;;5057852;28;20498;-86
2021/04/30 03:12:57;;;;;;;47.97;17.02;;;;;;;;;;5055787;28;20472;-86
2021/04/30 03:15:23;;;;;;;43.65;15.43;;;;;;;;;;5055084;28;20052;-86
2021/04/30 03:17:50;;;;;;;43.85;16.45;;;;;;;;;;5055341;28;20131;-87
2021/04/30 03:20:18;;;;;;;39.70;16.67;;;;;;;;;;5071506;28;20044;-86
2021/04/30 03:22:44;;;;;;;37.72;16.90;;;;;;;;;;5073327;28;20123;-86
2021/04/30 03:25:11;;;;;;;41.90;15.73;;;;;;;;;;5070200;28;20467;-86
2021/04/30 03:27:38;;;;;;;40.47;14.13;;;;;;;;;;5062432;28;20037;-87
2021/04/30 03:30:04;;;;;;;36.38;14.82;;;;;;;;;;5063900;28;20060;-86
2021/04/30 03:32:31;;;;;;;38.83;15.05;;;;;;;;;;5066153;28;20044;-86
2021/04/30 03:34:58;;;;;;;32.22;14.68;;;;;;;;;;5055622;28;20132;-86
2021/04/30 03:37:24;;;;;;;37.60;14.65;;;;;;;;;;5075550;28;20483;-86
2021/04/30 03:39:50;;;;;;;42.88;15.20;;;;;;;;;;5062630;28;20089;-86
2021/04/30 03:42:17;;;;;;;38.95;14.40;;;;;;;;;;5057633;28;20514;-86
2021/04/30 03:44:43;;;;;;;41.00;14.63;;;;;;;;;;5065942;28;20119;-86
2021/04/30 03:47:11;;;;;;;32.10;14.85;;;;;;;;;;5058526;28;20040;-86
2021/04/30 03:49:37;;;;;;;34.22;15.98;;;;;;;;;;5066630;28;20036;-86
2021/04/30 03:52:03;;;;;;;38.08;14.43;;;;;;;;;;5075418;28;20067;-86
2021/04/30 03:54:30;;;;;;;28.45;12.07;;;;;;;;;;5071859;28;20407;-87
2021/04/30 03:56:57;;;;;;;25.17;12.85;;;;;;;;;;5080162;28;20096;-87
2021/04/30 03:59:23;;;;;;;26.92;11.05;;;;;;;;;;5078763;28;20052;-87
2021/04/30 04:01:49;;;;;;;24.63;11.00;;;;;;;;;;5080889;28;20131;-86
2021/04/30 04:04:15;;;;;;;21.30;10.70;;;;;;;;;;5077199;28;20061;-87
2021/04/30 04:06:42;;;;;;;23.88;10.95;;;;;;;;;;5079068;28;20077;-86
2021/04/30 04:09:08;;;;;;;30.60;11.32;;;;;;;;;;5075390;28;20048;-85
2021/04/30 04:11:34;;;;;;;30.33;11.40;;;;;;;;;;5077334;28;20426;-87
2021/04/30 04:14:01;;;;;;;29.48;10.80;;;;;;;;;;5071398;28;20063;-86
2021/04/30 04:16:27;;;;;;;21.48;11.10;;;;;;;;;;5077405;28;20062;-86
2021/04/30 04:18:53;;;;;;;34.33;12.10;;;;;;;;;;5058841;28;20118;-86
2021/04/30 04:21:19;;;;;;;26.08;12.95;;;;;;;;;;5061374;28;20037;-87
2021/04/30 04:23:45;;;;;;;34.33;13.23;;;;;;;;;;5060220;28;20047;-87
2021/04/30 04:26:12;;;;;;;50.10;14.35;;;;;;;;;;5070083;28;20079;-86
2021/04/30 04:28:38;;;;;;;36.50;12.93;;;;;;;;;;5063978;28;20488;-87
2021/04/30 04:31:04;;;;;;;31.55;14.05;;;;;;;;;;5058007;28;20040;-86
2021/04/30 04:33:31;;;;;;;35.15;13.85;;;;;;;;;;5067253;28;20538;-87
2021/04/30 04:35:58;;;;;;;43.20;14.32;;;;;;;;;;5050628;28;20154;-87
2021/04/30 04:38:26;;;;;;;38.45;14.50;;;;;;;;;;5068565;28;20114;-86
2021/04/30 04:40:53;;;;;;;35.95;14.18;;;;;;;;;;5060769;28;20040;-86
2021/04/30 04:43:19;;;;;;;46.47;15.65;;;;;;;;;;5073971;28;20066;-87
2021/04/30 04:45:45;;;;;;;54.70;16.80;;;;;;;;;;5076621;28;20407;-87
2021/04/30 04:48:12;;;;;;;46.17;16.50;;;;;;;;;;5066198;28;20048;-81
2021/04/30 04:50:38;;;;;;;43.53;16.95;;;;;;;;;;5062373;28;20052;-85
2021/04/30 04:53:04;;;;;;;44.55;14.90;;;;;;;;;;5070129;28;20127;-85
2021/04/30 04:55:31;;;;;;;44.42;15.43;;;;;;;;;;5065900;28;20435;-84
2021/04/30 04:57:57;;;;;;;33.58;16.27;;;;;;;;;;5063929;28;20169;-85
2021/04/30 05:00:23;;;;;;;33.65;15.30;;;;;;;;;;5063610;28;20054;-85
2021/04/30 05:02:49;;;;;;;51.78;16.45;;;;;;;;;;5061160;28;20052;-85
2021/04/30 05:05:16;;;;;;;48.92;16.27;;;;;;;;;;5060794;28;20404;-85
2021/04/30 05:07:42;;;;;;;55.35;16.30;;;;;;;;;;5064848;28;20036;-91
2021/04/30 05:10:08;;;;;;;44.30;14.10;;;;;;;;;;5072100;28;20037;-90
2021/04/30 05:12:34;;;;;;;47.53;15.52;;;;;;;;;;5067738;28;20060;-91
2021/04/30 05:15:01;;;;;;;59.80;15.13;;;;;;;;;;5058261;28;20138;-87
2021/04/30 05:17:27;;;;;;;51.35;14.75;;;;;;;;;;5064017;28;20049;-88
2021/04/30 05:19:53;;;;;;;42.83;13.95;;;;;;;;;;5067076;28;20032;-90
2021/04/30 05:22:20;;;;;;;52.50;14.27;;;;;;;;;;5066728;28;20059;-89
2021/04/30 05:24:48;;;;;;;46.03;14.20;;;;;;;;;;5067550;28;20048;-89
2021/04/30 05:27:14;;;;;;;45.33;13.85;;;;;;;;;;5059285;28;20040;-94
2021/04/30 05:29:41;;;;;;;36.25;13.13;;;;;;;;;;5066643;28;20037;-86
2021/04/30 05:32:08;;;;;;;50.20;14.00;;;;;;;;;;5061355;28;20456;-87
2021/04/30 05:34:34;;;;;;;46.58;13.45;;;;;;;;;;5067190;28;20089;-86
2021/04/30 05:37:01;;;;;;;41.45;13.07;;;;;;;;;;5067548;28;20053;-86
2021/04/30 05:39:28;;;;;;;42.10;13.00;;;;;;;;;;5067788;28;20545;-88
2021/04/30 05:41:55;;;;;;;44.53;15.18;;;;;;;;;;5065604;28;20408;-89
2021/04/30 05:44:21;;;;;;;55.35;13.73;;;;;;;;;;5070098;28;20175;-89
2021/04/30 05:46:47;;;;;;;31.13;12.45;;;;;;;;;;5069973;28;20047;-90
2021/04/30 05:49:13;;;;;;;49.53;14.43;;;;;;;;;;5069455;28;20080;-88
2021/04/30 05:51:40;;;;;;;46.05;13.82;;;;;;;;;;5070447;28;20056;-89
2021/04/30 05:54:06;;;;;;;36.28;13.48;;;;;;;;;;5070331;28;20052;-89
2021/04/30 05:56:32;;;;;;;35.97;11.93;;;;;;;;;;5069522;28;20107;-88
2021/04/30 05:58:58;;;;;;;45.05;12.18;;;;;;;;;;5069497;28;20088;-89
2021/04/30 06:01:30;;;;;;;47.70;12.45;;;;;;;;;;5069937;28;20106;-90
2021/04/30 06:03:57;;;;;;;45.13;12.95;;;;;;;;;;5069722;28;20068;-89
2021/04/30 06:06:23;;;;;;;44.85;13.55;;;;;;;;;;5070338;28;20067;-88
2021/04/30 06:08:49;;;;;;;40.38;12.60;;;;;;;;;;5070176;28;20432;-87
2021/04/30 06:11:15;;;;;;;48.67;14.32;;;;;;;;;;5069272;28;20051;-88
2021/04/30 06:13:42;;;;;;;36.97;14.73;;;;;;;;;;5070002;28;20045;-89
2021/04/30 06:16:08;;;;;;;49.42;15.10;;;;;;;;;;5069941;28;20040;-88
2021/04/30 06:18:34;;;;;;;45.97;12.88;;;;;;;;;;5069393;28;20171;-88
2021/04/30 06:21:01;;;;;;;41.13;13.85;;;;;;;;;;5071604;28;20048;-89
2021/04/30 06:23:27;;;;;;;40.20;12.35;;;;;;;;;;5073534;28;20419;-88
2021/04/30 06:25:53;;;;;;;40.42;13.05;;;;;;;;;;5072706;28;20135;-88
2021/04/30 06:28:19;;;;;;;47.58;12.07;;;;;;;;;;5073246;28;20143;-89
2021/04/30 06:30:46;;;;;;;42.92;11.70;;;;;;;;;;5073141;28;20055;-89
2021/04/30 06:33:12;;;;;;;30.67;10.00;;;;;;;;;;5072572;28;20408;-88
2021/04/30 06:35:38;;;;;;;38.88;12.02;;;;;;;;;;5072727;28;20395;-86
2021/04/30 06:38:05;;;;;;;37.58;11.95;;;;;;;;;;5070155;28;20040;-86
2021/04/30 06:40:32;;;;;;;40.38;11.30;;;;;;;;;;5067560;28;20375;-86
2021/04/30 06:42:58;;;;;;;35.20;11.88;;;;;;;;;;5068587;28;20045;-86
2021/04/30 06:45:24;;;;;;;30.38;11.40;;;;;;;;;;5070922;28;20403;-96
2021/04/30 06:47:50;;;;;;;35.60;10.40;;;;;;;;;;5064535;28;20041;-85
2021/04/30 06:50:17;;;;;;;35.88;11.55;;;;;;;;;;5063161;28;20131;-87
2021/04/30 06:52:43;;;;;;;34.10;10.85;;;;;;;;;;5062822;28;20431;-87
2021/04/30 06:55:10;;;;;;;38.63;11.70;;;;;;;;;;5059467;28;20044;-86
2021/04/30 06:57:36;;;;;;;38.13;11.45;;;;;;;;;;5067274;28;20090;-88
2021/04/30 07:00:03;;;;;;;34.60;11.48;;;;;;;;;;5059819;28;20048;-87
2021/04/30 07:02:29;;;;;;;31.40;10.38;;;;;;;;;;5060119;28;20048;-88
2021/04/30 07:04:57;;;;;;;34.75;10.38;;;;;;;;;;5065229;28;20043;-87
2021/04/30 07:07:24;;;;;;;37.90;12.05;;;;;;;;;;5066615;28;20420;-87
2021/04/30 07:09:50;;;;;;;40.25;11.05;;;;;;;;;;5065971;28;20045;-88
2021/04/30 07:12:18;;;;;;;43.60;12.88;;;;;;;;;;5062683;28;20064;-87
2021/04/30 07:14:45;;;;;;;30.25;11.77;;;;;;;;;;5062602;28;20475;-87
2021/04/30 07:17:11;;;;;;;27.02;10.52;;;;;;;;;;5060507;28;20390;-86
2021/04/30 07:19:38;;;;;;;28.15;10.32;;;;;;;;;;5063311;28;20066;-87
2021/04/30 07:22:09;;;;;;;25.02;9.77;;;;;;;;;;5065228;28;20050;-87
2021/04/30 07:24:35;;;;;;;30.20;11.32;;;;;;;;;;5066802;28;20051;-86
2021/04/30 07:27:01;;;;;;;27.83;11.15;;;;;;;;;;5065278;28;20521;-87
2021/04/30 07:29:27;;;;;;;35.95;10.93;;;;;;;;;;5062399;28;20064;-84
2021/04/30 07:31:56;;;;;;;25.63;10.90;;;;;;;;;;5059620;28;20056;-84
2021/04/30 07:34:22;;;;;;;33.17;10.77;;;;;;;;;;5066329;28;20051;-88
2021/04/30 07:36:48;;;;;;;31.48;12.32;;;;;;;;;;5067211;28;20041;-89
2021/04/30 07:39:15;;;;;;;24.13;10.05;;;;;;;;;;5066379;28;20051;-88
2021/04/30 07:41:42;;;;;;;26.15;10.80;;;;;;;;;;5070831;28;20389;-88
2021/04/30 07:44:08;;;;;;;33.30;11.98;;;;;;;;;;5071825;28;20100;-88
2021/04/30 07:46:34;;;;;;;28.67;10.18;;;;;;;;;;5072111;28;20079;-88
2021/04/30 07:49:00;;;;;;;24.67;12.15;;;;;;;;;;5071015;28;20044;-88
2021/04/30 07:51:27;;;;;;;40.75;13.45;;;;;;;;;;5072320;28;20044;-88
2021/04/30 07:53:53;;;;;;;34.97;11.98;;;;;;;;;;5071449;28;20040;-88
2021/04/30 07:56:19;;;;;;;32.10;11.63;;;;;;;;;;5071001;28;20059;-89
2021/04/30 07:58:46;;;;;;;32.70;12.25;;;;;;;;;;5071370;28;20055;-89
2021/04/30 08:01:12;;;;;;;19.73;11.18;;;;;;;;;;5071407;28;20079;-88
2021/04/30 08:03:38;;;;;;;23.40;10.82;;;;;;;;;;5070649;28;20484;-89
2021/04/30 08:06:05;;;;;;;27.33;11.02;;;;;;;;;;5071469;28;20059;-89
2021/04/30 08:08:31;;;;;;;26.33;11.95;;;;;;;;;;5071355;28;20143;-88
2021/04/30 08:10:57;;;;;;;28.60;12.80;;;;;;;;;;5070552;28;20037;-89
2021/04/30 08:13:24;;;;;;;29.02;11.13;;;;;;;;;;5071620;28;20357;-88
2021/04/30 08:15:50;;;;;;;32.92;10.93;;;;;;;;;;5070493;28;20041;-89
2021/04/30 08:18:16;;;;;;;24.00;11.30;;;;;;;;;;5064911;28;20089;-89
2021/04/30 08:20:42;;;;;;;21.20;11.35;;;;;;;;;;5065757;28;20064;-89
2021/04/30 08:23:09;;;;;;;21.95;11.95;;;;;;;;;;5069519;28;20048;-89
2021/04/30 08:25:35;;;;;;;22.67;12.07;;;;;;;;;;5062463;28;20072;-89
2021/04/30 08:28:01;;;;;;;23.40;12.10;;;;;;;;;;5055350;28;20101;-88
2021/04/30 08:30:28;;;;;;;22.42;10.95;;;;;;;;;;5069391;28;20033;-89
2021/04/30 08:32:54;;;;;;;23.00;10.73;;;;;;;;;;5068192;28;20044;-88
2021/04/30 08:35:22;;;;;;;23.92;11.05;;;;;;;;;;5065284;28;20040;-89
2021/04/30 08:37:48;;;;;;;19.98;11.52;;;;;;;;;;5058834;28;20059;-89
2021/04/30 08:40:15;;;;;;;20.00;11.13;;;;;;;;;;5069054;28;20119;-89
2021/04/30 08:42:41;;;;;;;23.55;11.82;;;;;;;;;;5069422;28;20056;-86
2021/04/30 08:45:12;;;;;;;18.15;10.90;;;;;;;;;;5069001;28;20054;-87
2021/04/30 08:47:39;;;;;;;16.90;11.13;;;;;;;;;;5069849;28;20098;-82
2021/04/30 08:50:05;;;;;;;24.92;10.52;;;;;;;;;;5069008;28;20517;-81
2021/04/30 08:52:32;;;;;;;26.42;10.98;;;;;;;;;;5056859;28;20049;-87
2021/04/30 08:55:05;;;;;;;20.63;11.52;;;;;;;;;;5063068;28;20052;-90
2021/04/30 08:57:32;;;;;;;23.52;12.68;;;;;;;;;;5058567;28;20045;-87
2021/04/30 09:00:00;;;;;;;19.30;10.77;;;;;;;;;;5068966;28;20113;-82
2021/04/30 09:02:31;;;;;;;19.05;10.45;;;;;;;;;;5057723;28;20052;-86
2021/04/30 09:04:57;;;;;;;18.40;10.30;;;;;;;;;;5049409;28;20497;-86
2021/04/30 09:07:25;;;;;;;18.00;10.15;;;;;;;;;;5050497;28;20067;-85
2021/04/30 09:09:56;;;;;;;18.50;11.13;;;;;;;;;;5057716;28;20432;-92
2021/04/30 09:12:23;;;;;;;28.75;10.48;;;;;;;;;;5062619;28;20048;-91
2021/04/30 09:14:49;;;;;;;26.42;11.23;;;;;;;;;;5027075;28;20083;-91
2021/04/30 09:17:17;;;;;;;20.77;11.03;;;;;;;;;;5041307;28;20060;-92
2021/04/30 09:19:47;;;;;;;18.33;11.35;;;;;;;;;;5048590;28;20040;-92
2021/04/30 09:22:15;;;;;;;17.40;10.23;;;;;;;;;;5059610;28;20492;-90
2021/04/30 09:24:42;;;;;;;19.50;9.88;;;;;;;;;;5061557;28;20109;-91
2021/04/30 09:27:09;;;;;;;17.10;10.57;;;;;;;;;;5044706;28;20120;-91
2021/04/30 09:29:37;;;;;;;18.10;9.80;;;;;;;;;;5048880;28;20131;-92
2021/04/30 09:32:04;;;;;;;12.60;8.68;;;;;;;;;;5050024;28;20111;-92
2021/04/30 09:34:32;;;;;;;19.33;9.48;;;;;;;;;;5058672;28;20397;-91
2021/04/30 09:37:02;;;;;;;19.38;9.55;;;;;;;;;;5038458;28;20064;-92
2021/04/30 09:39:29;;;;;;;12.35;8.98;;;;;;;;;;5063134;28;20136;-91
2021/04/30 09:42:06;;;;;;;15.77;9.20;;;;;;;;;;5056323;28;20064;-91
2021/04/30 09:44:34;;;;;;;15.98;9.25;;;;;;;;;;5059395;28;20495;-91
2021/04/30 09:47:13;;;;;;;16.65;9.57;;;;;;;;;;5046691;28;20047;-91
2021/04/30 09:49:40;;;;;;;12.88;8.90;;;;;;;;;;5058507;28;20048;-93
2021/04/30 09:52:08;;;;;;;15.57;8.73;;;;;;;;;;5050018;28;20045;-92
2021/04/30 09:54:34;;;;;;;13.60;9.15;;;;;;;;;;5045366;28;20040;-92
2021/04/30 09:57:09;;;;;;;15.80;8.45;;;;;;;;;;5059777;28;20064;-84
2021/04/30 09:59:36;;;;;;;15.65;9.18;;;;;;;;;;5060877;28;20113;-83
2021/04/30 10:02:04;;;;;;;15.50;8.52;;;;;;;;;;5063685;28;20047;-83
2021/04/30 10:04:32;;;;;;;14.65;7.80;;;;;;;;;;5057193;28;20132;-83
2021/04/30 10:06:59;;;;;;;14.63;8.90;;;;;;;;;;5064374;28;20506;-83
2021/04/30 10:09:26;;;;;;;13.40;8.27;;;;;;;;;;5059527;28;20051;-83
2021/04/30 10:11:53;;;;;;;15.35;8.93;;;;;;;;;;5055198;28;20045;-83
2021/04/30 10:14:19;;;;;;;18.65;8.43;;;;;;;;;;5028987;28;20085;-89
2021/04/30 10:16:45;;;;;;;16.00;8.85;;;;;;;;;;5051145;28;20037;-90
2021/04/30 10:19:11;;;;;;;14.52;7.90;;;;;;;;;;5054577;28;20052;-90
2021/04/30 10:21:41;;;;;;;13.60;8.30;;;;;;;;;;5061488;28;20480;-87
2021/04/30 10:24:11;;;;;;;16.40;8.13;;;;;;;;;;5049169;28;20041;-90
2021/04/30 10:26:37;;;;;;;12.48;7.78;;;;;;;;;;5056795;28;20055;-87
2021/04/30 10:29:07;;;;;;;12.25;6.82;;;;;;;;;;5061979;28;20044;-93
2021/04/30 10:31:35;;;;;;;15.00;8.48;;;;;;;;;;5034473;28;20048;-91
2021/04/30 10:34:05;;;;;;;16.13;8.05;;;;;;;;;;5048556;28;20150;-90
2021/04/30 10:36:34;;;;;;;14.20;8.27;;;;;;;;;;5046131;28;20556;-89
2021/04/30 10:39:01;;;;;;;12.68;8.50;;;;;;;;;;5052493;28;20121;-92
2021/04/30 10:41:29;;;;;;;12.25;8.02;;;;;;;;;;5041595;28;20060;-90
2021/04/30 10:44:12;;;;;;;19.58;8.43;;;;;;;;;;5050049;28;20060;-91
2021/04/30 10:46:38;;;;;;;11.27;8.68;;;;;;;;;;5053230;28;20057;-91
2021/04/30 10:49:04;;;;;;;12.18;8.98;;;;;;;;;;5047649;28;20045;-89
2021/04/30 10:51:32;;;;;;;13.50;8.80;;;;;;;;;;5043972;28;20562;-89
2021/04/30 10:54:16;;;;;;;13.93;9.75;;;;;;;;;;5055964;28;20067;-89
2021/04/30 10:56:43;;;;;;;14.75;9.48;;;;;;;;;;5048913;28;20037;-90
2021/04/30 10:59:09;;;;;;;15.57;9.95;;;;;;;;;;5054712;28;20091;-89
2021/04/30 11:01:37;;;;;;;13.95;9.43;;;;;;;;;;5059682;28;20123;-90
2021/04/30 11:04:12;;;;;;;17.27;11.00;;;;;;;;;;5066149;28;20048;-90
2021/04/30 11:06:40;;;;;;;15.40;9.57;;;;;;;;;;5068545;28;20399;-88
2021/04/30 11:09:12;;;;;;;15.73;10.00;;;;;;;;;;5068640;28;20079;-88
2021/04/30 11:11:39;;;;;;;17.40;10.68;;;;;;;;;;5078537;28;20398;-88
2021/04/30 11:14:18;;;;;;;19.15;9.82;;;;;;;;;;5068151;28;20115;-88
2021/04/30 11:16:44;;;;;;;20.58;11.35;;;;;;;;;;5077207;28;20032;-89
2021/04/30 11:19:10;;;;;;;15.45;10.32;;;;;;;;;;5076090;28;20044;-88
2021/04/30 11:21:45;;;;;;;17.85;11.15;;;;;;;;;;5074990;28;20039;-88
2021/04/30 11:24:31;;;;;;;15.50;10.35;;;;;;;;;;5069093;28;20052;-88
2021/04/30 11:27:16;;;;;;;17.95;10.90;;;;;;;;;;5069604;28;20044;-88
2021/04/30 11:29:43;;;;;;;19.90;10.63;;;;;;;;;;5068551;28;20048;-87
2021/04/30 11:32:20;;;;;;;19.83;10.15;;;;;;;;;;5065748;28;20041;-88
2021/04/30 11:34:51;;;;;;;13.88;9.35;;;;;;;;;;5065451;28;20040;-88
2021/04/30 11:37:19;;;;;;;18.33;10.68;;;;;;;;;;5068566;28;20044;-88
2021/04/30 11:39:47;;;;;;;14.20;9.95;;;;;;;;;;5064252;28;20060;-89
2021/04/30 11:42:15;;;;;;;15.98;9.95;;;;;;;;;;5064804;28;20041;-89
2021/04/30 11:44:42;;;;;;;16.63;10.50;;;;;;;;;;5062810;28;20056;-90
2021/04/30 11:47:11;;;;;;;15.43;10.30;;;;;;;;;;5061273;28;20139;-89
2021/04/30 11:49:39;;;;;;;13.98;9.43;;;;;;;;;;5064483;28;20048;-87
2021/04/30 11:52:06;;;;;;;15.23;9.75;;;;;;;;;;5062244;28;20081;-88
2021/04/30 11:54:33;;;;;;;16.02;10.15;;;;;;;;;;5060239;28;20041;-88
2021/04/30 11:57:01;;;;;;;15.43;10.00;;;;;;;;;;5068280;28;20067;-89
2021/04/30 11:59:27;;;;;;;16.90;10.20;;;;;;;;;;5063403;28;20068;-89
2021/04/30 12:01:57;;;;;;;13.88;10.50;;;;;;;;;;5061138;28;20154;-89
2021/04/30 12:04:41;;;;;;;18.65;10.80;;;;;;;;;;5061148;28;20044;-90
2021/04/30 12:07:08;;;;;;;16.67;9.65;;;;;;;;;;5065994;28;20566;-90
2021/04/30 12:09:34;;;;;;;15.20;10.65;;;;;;;;;;5065987;28;20141;-91
2021/04/30 12:12:21;;;;;;;17.92;10.70;;;;;;;;;;5064889;28;20036;-91
2021/04/30 12:14:47;;;;;;;17.48;10.38;;;;;;;;;;5067913;28;20044;-89
2021/04/30 12:17:21;;;;;;;15.43;10.48;;;;;;;;;;5065152;28;20044;-89
2021/04/30 12:19:47;;;;;;;;;;;;;;;;;;5060069;28;20041;-90
2021/04/30 12:22:17;;;;;;;16.45;9.90;;;;;;;;;;5063494;28;19943;-89
2021/04/30 12:24:43;;;;;;;18.98;9.85;;;;;;;;;;5062798;28;20098;-89
2021/04/30 12:27:09;;;;;;;21.17;10.73;;;;;;;;;;5060311;28;20044;-89
2021/04/30 12:29:38;;;;;;;19.45;10.52;;;;;;;;;;5066961;28;20048;-84
2021/04/30 12:32:04;;;;;;;20.35;11.98;;;;;;;;;;5059051;28;20060;-88
2021/04/30 12:34:30;;;;;;;15.93;11.93;;;;;;;;;;5056173;28;20049;-88
2021/04/30 12:36:57;;;;;;;16.65;11.45;;;;;;;;;;5062044;28;20124;-88
2021/04/30 12:39:27;;;;;;;20.40;13.80;;;;;;;;;;5060665;28;20051;-94
2021/04/30 12:41:53;;;;;;;17.10;12.13;;;;;;;;;;5063630;28;20164;-95
2021/04/30 12:44:19;;;;;;;16.80;12.13;;;;;;;;;;5063692;28;20124;-95
2021/04/30 12:46:46;;;;;;;19.83;12.88;;;;;;;;;;5063618;28;20040;-87
2021/04/30 12:49:14;;;;;;;20.15;13.30;;;;;;;;;;5058752;28;20064;-88
2021/04/30 12:51:42;;;;;;;20.10;13.55;;;;;;;;;;5055413;28;20041;-94
2021/04/30 12:54:08;;;;;;;22.40;14.95;;;;;;;;;;5063672;28;20112;-89
2021/04/30 12:56:36;;;;;;;21.80;14.68;;;;;;;;;;5063467;28;20051;-93
2021/04/30 12:59:12;;;;;;;20.20;14.95;;;;;;;;;;5069547;28;20051;-93
2021/04/30 13:01:40;;;;;;;19.95;14.50;;;;;;;;;;5056547;28;20103;-90
2021/04/30 13:04:07;;;;;;;21.00;15.45;;;;;;;;;;5047102;28;20049;-91
2021/04/30 13:06:36;;;;;;;22.25;16.05;;;;;;;;;;5023616;28;20124;-91
2021/04/30 13:09:03;;;;;;;19.92;14.98;;;;;;;;;;5047841;28;20164;-86
2021/04/30 13:11:30;;;;;;;21.02;15.63;;;;;;;;;;5043136;28;20152;-86
2021/04/30 13:13:57;;;;;;;18.27;14.10;;;;;;;;;;5045465;28;20052;-87
2021/04/30 13:16:34;;;;;;;19.67;14.50;;;;;;;;;;5055438;28;20056;-88
2021/04/30 13:19:07;;;;;;;20.48;14.15;;;;;;;;;;5043114;28;20046;-87
2021/04/30 13:21:34;;;;;;;18.33;13.40;;;;;;;;;;5036758;28;20049;-88
2021/04/30 13:24:10;;;;;;;18.35;13.48;;;;;;;;;;5045087;28;20155;-86
2021/04/30 13:26:36;;;;;;;18.77;14.40;;;;;;;;;;5040283;28;20107;-88
2021/04/30 13:29:08;;;;;;;20.77;14.27;;;;;;;;;;5043854;28;20484;-86
2021/04/30 13:31:35;;;;;;;22.25;14.80;;;;;;;;;;5049463;28;20044;-87
2021/04/30 13:34:06;;;;;;;19.45;14.52;;;;;;;;;;5042415;28;20045;-85
2021/04/30 13:36:33;;;;;;;20.23;15.07;;;;;;;;;;5047540;28;20459;-85
2021/04/30 13:39:00;;;;;;;17.45;13.00;;;;;;;;;;5049986;28;20154;-85
2021/04/30 13:41:35;;;;;;;15.98;12.82;;;;;;;;;;5049093;28;20040;-85
2021/04/30 13:44:17;;;;;;;15.15;11.50;;;;;;;;;;5046231;28;20048;-85
2021/04/30 13:46:51;;;;;;;15.93;11.40;;;;;;;;;;5043813;28;20503;-86
2021/04/30 13:49:18;;;;;;;16.33;11.52;;;;;;;;;;5051537;28;20354;-93
2021/04/30 13:51:44;;;;;;;14.40;11.95;;;;;;;;;;5046712;28;20046;-94
2021/04/30 13:54:11;;;;;;;14.27;11.95;;;;;;;;;;5051716;28;20053;-88
2021/04/30 13:56:37;;;;;;;13.60;11.27;;;;;;;;;;5044932;28;20473;-86
2021/04/30 13:59:05;;;;;;;28.13;13.20;;;;;;;;;;5056538;28;20197;-87
2021/04/30 14:01:32;;;;;;;13.90;11.85;;;;;;;;;;5042470;28;20532;-88
2021/04/30 14:03:59;;;;;;;15.13;11.10;;;;;;;;;;5050120;28;20044;-86
2021/04/30 14:06:25;;;;;;;15.80;11.65;;;;;;;;;;5054108;28;20041;-87
2021/04/30 14:08:53;;;;;;;13.55;10.90;;;;;;;;;;5049939;28;20487;-88
2021/04/30 14:11:20;;;;;;;14.57;10.77;;;;;;;;;;5056557;28;20040;-88
2021/04/30 14:13:47;;;;;;;17.05;12.23;;;;;;;;;;5056314;28;20446;-88
2021/04/30 14:16:13;;;;;;;14.13;10.82;;;;;;;;;;5051007;28;20040;-89
2021/04/30 14:18:39;;;;;;;13.43;10.80;;;;;;;;;;5045628;28;20187;-86
2021/04/30 14:21:06;;;;;;;14.75;11.00;;;;;;;;;;5049198;28;20164;-86